sensor_id;sensor_type;location;lat;lon;timestamp;P1;durP1;ratioP1;P2;durP2;ratioP2
76409;SDS011;65238;42.662;23.280;2023-01-09T00:00:39;50.65;;;24.00;;
76409;SDS011;65238;42.662;23.280;2023-01-09T00:03:05;54.00;;;25.40;;
76409;SDS011;65238;42.662;23.280;2023-01-09T00:05:31;58.70;;;24.88;;
76409;SDS011;65238;42.662;23.280;2023-01-09T00:07:56;49.78;;;22.63;;
76409;SDS011;65238;42.662;23.280;2023-01-09T00:10:22;49.78;;;23.38;;
76409;SDS011;65238;42.662;23.280;2023-01-09T00:12:47;52.38;;;22.08;;
76409;SDS011;65238;42.662;23.280;2023-01-09T00:15:13;58.25;;;24.08;;
76409;SDS011;65238;42.662;23.280;2023-01-09T00:17:38;56.15;;;24.40;;
76409;SDS011;65238;42.662;23.280;2023-01-09T00:20:04;56.00;;;24.88;;
76409;SDS011;65238;42.662;23.280;2023-01-09T00:22:31;65.28;;;26.65;;
76409;SDS011;65238;42.662;23.280;2023-01-09T00:24:56;64.53;;;27.20;;
76409;SDS011;65238;42.662;23.280;2023-01-09T00:27:22;64.35;;;28.63;;
76409;SDS011;65238;42.662;23.280;2023-01-09T00:29:47;67.57;;;28.80;;
76409;SDS011;65238;42.662;23.280;2023-01-09T00:32:13;61.85;;;27.27;;
76409;SDS011;65238;42.662;23.280;2023-01-09T00:34:39;71.00;;;27.63;;
76409;SDS011;65238;42.662;23.280;2023-01-09T00:37:06;67.03;;;29.40;;
76409;SDS011;65238;42.662;23.280;2023-01-09T00:39:38;70.55;;;32.10;;
76409;SDS011;65238;42.662;23.280;2023-01-09T00:42:05;82.68;;;32.25;;
76409;SDS011;65238;42.662;23.280;2023-01-09T00:44:39;71.90;;;29.05;;
76409;SDS011;65238;42.662;23.280;2023-01-09T00:47:09;72.40;;;31.30;;
76409;SDS011;65238;42.662;23.280;2023-01-09T00:49:38;63.10;;;28.53;;
76409;SDS011;65238;42.662;23.280;2023-01-09T00:52:04;59.65;;;26.77;;
76409;SDS011;65238;42.662;23.280;2023-01-09T00:54:30;59.78;;;27.58;;
76409;SDS011;65238;42.662;23.280;2023-01-09T00:56:56;63.05;;;25.83;;
76409;SDS011;65238;42.662;23.280;2023-01-09T00:59:23;60.58;;;25.35;;
76409;SDS011;65238;42.662;23.280;2023-01-09T01:01:48;55.40;;;25.63;;
76409;SDS011;65238;42.662;23.280;2023-01-09T01:04:14;52.33;;;23.98;;
76409;SDS011;65238;42.662;23.280;2023-01-09T01:06:58;61.72;;;27.83;;
76409;SDS011;65238;42.662;23.280;2023-01-09T01:09:42;57.33;;;28.33;;
76409;SDS011;65238;42.662;23.280;2023-01-09T01:12:07;57.30;;;25.88;;
76409;SDS011;65238;42.662;23.280;2023-01-09T01:14:33;60.22;;;26.63;;
76409;SDS011;65238;42.662;23.280;2023-01-09T01:17:00;54.30;;;24.05;;
76409;SDS011;65238;42.662;23.280;2023-01-09T01:19:25;51.55;;;25.58;;
76409;SDS011;65238;42.662;23.280;2023-01-09T01:21:50;59.63;;;25.55;;
76409;SDS011;65238;42.662;23.280;2023-01-09T01:24:16;52.63;;;24.52;;
76409;SDS011;65238;42.662;23.280;2023-01-09T01:26:45;51.47;;;25.13;;
76409;SDS011;65238;42.662;23.280;2023-01-09T01:29:10;54.80;;;24.70;;
76409;SDS011;65238;42.662;23.280;2023-01-09T01:31:36;55.55;;;25.95;;
76409;SDS011;65238;42.662;23.280;2023-01-09T01:34:01;57.28;;;25.20;;
76409;SDS011;65238;42.662;23.280;2023-01-09T01:36:27;54.17;;;23.83;;
76409;SDS011;65238;42.662;23.280;2023-01-09T01:38:52;55.05;;;24.85;;
76409;SDS011;65238;42.662;23.280;2023-01-09T01:41:17;58.20;;;25.63;;
76409;SDS011;65238;42.662;23.280;2023-01-09T01:44:03;51.40;;;24.63;;
76409;SDS011;65238;42.662;23.280;2023-01-09T01:46:30;53.42;;;24.98;;
76409;SDS011;65238;42.662;23.280;2023-01-09T01:49:02;48.35;;;22.98;;
76409;SDS011;65238;42.662;23.280;2023-01-09T01:51:31;58.80;;;24.55;;
76409;SDS011;65238;42.662;23.280;2023-01-09T01:53:59;51.50;;;23.63;;
76409;SDS011;65238;42.662;23.280;2023-01-09T01:56:33;55.03;;;22.60;;
76409;SDS011;65238;42.662;23.280;2023-01-09T01:59:09;50.55;;;22.80;;
76409;SDS011;65238;42.662;23.280;2023-01-09T02:01:39;53.05;;;23.52;;
76409;SDS011;65238;42.662;23.280;2023-01-09T02:04:06;46.88;;;21.50;;
76409;SDS011;65238;42.662;23.280;2023-01-09T02:06:32;49.70;;;19.92;;
76409;SDS011;65238;42.662;23.280;2023-01-09T02:08:58;46.55;;;20.55;;
76409;SDS011;65238;42.662;23.280;2023-01-09T02:11:24;40.10;;;19.67;;
76409;SDS011;65238;42.662;23.280;2023-01-09T02:13:50;45.35;;;22.83;;
76409;SDS011;65238;42.662;23.280;2023-01-09T02:16:45;51.20;;;22.23;;
76409;SDS011;65238;42.662;23.280;2023-01-09T02:22:26;35.25;;;18.08;;
76409;SDS011;65238;42.662;23.280;2023-01-09T02:33:23;37.40;;;17.88;;
76409;SDS011;65238;42.662;23.280;2023-01-09T02:36:07;34.05;;;16.80;;
76409;SDS011;65238;42.662;23.280;2023-01-09T02:44:22;34.65;;;15.80;;
76409;SDS011;65238;42.662;23.280;2023-01-09T02:46:46;31.35;;;16.70;;
76409;SDS011;65238;42.662;23.280;2023-01-09T02:49:13;34.22;;;15.32;;
76409;SDS011;65238;42.662;23.280;2023-01-09T02:51:48;35.70;;;15.82;;
76409;SDS011;65238;42.662;23.280;2023-01-09T02:59:41;32.92;;;15.43;;
76409;SDS011;65238;42.662;23.280;2023-01-09T03:02:44;32.03;;;15.93;;
76409;SDS011;65238;42.662;23.280;2023-01-09T03:07:57;34.20;;;15.13;;
76409;SDS011;65238;42.662;23.280;2023-01-09T03:10:35;35.58;;;15.52;;
76409;SDS011;65238;42.662;23.280;2023-01-09T03:13:04;30.33;;;14.70;;
76409;SDS011;65238;42.662;23.280;2023-01-09T03:15:35;29.90;;;14.57;;
76409;SDS011;65238;42.662;23.280;2023-01-09T03:18:02;31.77;;;14.05;;
76409;SDS011;65238;42.662;23.280;2023-01-09T03:20:29;31.85;;;14.65;;
76409;SDS011;65238;42.662;23.280;2023-01-09T03:22:56;33.90;;;15.75;;
76409;SDS011;65238;42.662;23.280;2023-01-09T03:25:23;29.77;;;14.75;;
76409;SDS011;65238;42.662;23.280;2023-01-09T03:27:51;28.73;;;14.55;;
76409;SDS011;65238;42.662;23.280;2023-01-09T03:30:20;28.80;;;14.88;;
76409;SDS011;65238;42.662;23.280;2023-01-09T03:32:46;34.60;;;16.08;;
76409;SDS011;65238;42.662;23.280;2023-01-09T03:35:11;38.63;;;18.83;;
76409;SDS011;65238;42.662;23.280;2023-01-09T03:37:37;37.38;;;16.10;;
76409;SDS011;65238;42.662;23.280;2023-01-09T03:40:03;31.27;;;16.20;;
76409;SDS011;65238;42.662;23.280;2023-01-09T03:42:28;34.15;;;16.30;;
76409;SDS011;65238;42.662;23.280;2023-01-09T03:44:57;33.13;;;16.98;;
76409;SDS011;65238;42.662;23.280;2023-01-09T03:47:22;34.65;;;16.67;;
76409;SDS011;65238;42.662;23.280;2023-01-09T03:49:48;31.77;;;16.75;;
76409;SDS011;65238;42.662;23.280;2023-01-09T03:52:13;37.95;;;16.75;;
76409;SDS011;65238;42.662;23.280;2023-01-09T03:54:38;33.50;;;16.75;;
76409;SDS011;65238;42.662;23.280;2023-01-09T03:57:04;41.70;;;18.25;;
76409;SDS011;65238;42.662;23.280;2023-01-09T03:59:29;30.20;;;15.80;;
76409;SDS011;65238;42.662;23.280;2023-01-09T04:01:55;31.83;;;16.05;;
76409;SDS011;65238;42.662;23.280;2023-01-09T04:04:20;32.05;;;15.85;;
76409;SDS011;65238;42.662;23.280;2023-01-09T04:06:46;32.33;;;16.02;;
76409;SDS011;65238;42.662;23.280;2023-01-09T04:09:11;32.15;;;17.15;;
76409;SDS011;65238;42.662;23.280;2023-01-09T04:11:37;43.03;;;20.40;;
76409;SDS011;65238;42.662;23.280;2023-01-09T04:14:02;36.60;;;17.63;;
76409;SDS011;65238;42.662;23.280;2023-01-09T04:16:28;35.45;;;16.33;;
76409;SDS011;65238;42.662;23.280;2023-01-09T04:18:53;30.73;;;16.27;;
76409;SDS011;65238;42.662;23.280;2023-01-09T04:21:19;30.50;;;16.35;;
76409;SDS011;65238;42.662;23.280;2023-01-09T04:24:04;32.60;;;16.65;;
76409;SDS011;65238;42.662;23.280;2023-01-09T04:26:30;29.05;;;15.23;;
76409;SDS011;65238;42.662;23.280;2023-01-09T04:28:55;31.33;;;15.40;;
76409;SDS011;65238;42.662;23.280;2023-01-09T04:31:21;29.98;;;14.60;;
76409;SDS011;65238;42.662;23.280;2023-01-09T04:33:47;26.80;;;14.63;;
76409;SDS011;65238;42.662;23.280;2023-01-09T04:36:13;33.65;;;13.88;;
76409;SDS011;65238;42.662;23.280;2023-01-09T04:38:39;29.38;;;13.80;;
76409;SDS011;65238;42.662;23.280;2023-01-09T04:41:07;23.42;;;13.05;;
76409;SDS011;65238;42.662;23.280;2023-01-09T04:43:56;29.80;;;14.85;;
76409;SDS011;65238;42.662;23.280;2023-01-09T04:46:21;29.50;;;15.00;;
76409;SDS011;65238;42.662;23.280;2023-01-09T04:48:47;34.08;;;16.10;;
76409;SDS011;65238;42.662;23.280;2023-01-09T04:51:14;30.23;;;15.25;;
76409;SDS011;65238;42.662;23.280;2023-01-09T04:53:40;33.13;;;15.75;;
76409;SDS011;65238;42.662;23.280;2023-01-09T04:56:05;33.38;;;16.00;;
76409;SDS011;65238;42.662;23.280;2023-01-09T04:58:31;39.10;;;18.08;;
76409;SDS011;65238;42.662;23.280;2023-01-09T05:00:56;40.58;;;19.35;;
76409;SDS011;65238;42.662;23.280;2023-01-09T05:03:22;42.92;;;20.35;;
76409;SDS011;65238;42.662;23.280;2023-01-09T05:05:48;38.92;;;18.85;;
76409;SDS011;65238;42.662;23.280;2023-01-09T05:08:14;40.25;;;19.70;;
76409;SDS011;65238;42.662;23.280;2023-01-09T05:10:43;43.80;;;19.33;;
76409;SDS011;65238;42.662;23.280;2023-01-09T05:13:09;36.58;;;19.40;;
76409;SDS011;65238;42.662;23.280;2023-01-09T05:15:35;40.95;;;20.33;;
76409;SDS011;65238;42.662;23.280;2023-01-09T05:18:01;42.50;;;19.92;;
76409;SDS011;65238;42.662;23.280;2023-01-09T05:20:26;41.65;;;20.30;;
76409;SDS011;65238;42.662;23.280;2023-01-09T05:22:55;38.55;;;17.92;;
76409;SDS011;65238;42.662;23.280;2023-01-09T05:25:21;35.17;;;17.15;;
76409;SDS011;65238;42.662;23.280;2023-01-09T05:27:50;34.30;;;16.13;;
76409;SDS011;65238;42.662;23.280;2023-01-09T05:30:15;33.88;;;16.88;;
76409;SDS011;65238;42.662;23.280;2023-01-09T05:32:41;34.35;;;16.60;;
76409;SDS011;65238;42.662;23.280;2023-01-09T05:35:07;35.67;;;16.50;;
76409;SDS011;65238;42.662;23.280;2023-01-09T05:37:32;34.70;;;17.88;;
76409;SDS011;65238;42.662;23.280;2023-01-09T05:39:58;36.50;;;18.70;;
76409;SDS011;65238;42.662;23.280;2023-01-09T05:42:24;37.08;;;17.67;;
76409;SDS011;65238;42.662;23.280;2023-01-09T05:44:49;42.13;;;19.85;;
76409;SDS011;65238;42.662;23.280;2023-01-09T05:47:14;41.60;;;19.88;;
76409;SDS011;65238;42.662;23.280;2023-01-09T05:49:40;37.38;;;18.42;;
76409;SDS011;65238;42.662;23.280;2023-01-09T05:52:05;37.15;;;18.70;;
76409;SDS011;65238;42.662;23.280;2023-01-09T05:54:32;46.78;;;21.15;;
76409;SDS011;65238;42.662;23.280;2023-01-09T05:56:58;44.25;;;19.30;;
76409;SDS011;65238;42.662;23.280;2023-01-09T05:59:23;42.58;;;21.10;;
76409;SDS011;65238;42.662;23.280;2023-01-09T06:01:49;40.15;;;19.77;;
76409;SDS011;65238;42.662;23.280;2023-01-09T06:04:14;44.20;;;20.75;;
76409;SDS011;65238;42.662;23.280;2023-01-09T06:06:40;41.40;;;20.13;;
76409;SDS011;65238;42.662;23.280;2023-01-09T06:09:05;43.30;;;21.00;;
76409;SDS011;65238;42.662;23.280;2023-01-09T06:11:31;41.45;;;21.00;;
76409;SDS011;65238;42.662;23.280;2023-01-09T06:13:59;41.25;;;19.45;;
76409;SDS011;65238;42.662;23.280;2023-01-09T06:16:25;36.25;;;19.60;;
76409;SDS011;65238;42.662;23.280;2023-01-09T06:18:51;41.67;;;19.02;;
76409;SDS011;65238;42.662;23.280;2023-01-09T06:21:16;39.60;;;20.08;;
76409;SDS011;65238;42.662;23.280;2023-01-09T06:23:42;48.47;;;21.33;;
76409;SDS011;65238;42.662;23.280;2023-01-09T06:26:07;46.47;;;22.25;;
76409;SDS011;65238;42.662;23.280;2023-01-09T06:28:32;42.53;;;21.95;;
76409;SDS011;65238;42.662;23.280;2023-01-09T06:30:58;46.78;;;22.75;;
76409;SDS011;65238;42.662;23.280;2023-01-09T06:33:23;51.65;;;22.40;;
76409;SDS011;65238;42.662;23.280;2023-01-09T06:35:49;47.58;;;23.20;;
76409;SDS011;65238;42.662;23.280;2023-01-09T06:38:14;53.03;;;24.63;;
76409;SDS011;65238;42.662;23.280;2023-01-09T06:40:40;52.88;;;25.48;;
76409;SDS011;65238;42.662;23.280;2023-01-09T06:43:05;45.22;;;24.17;;
76409;SDS011;65238;42.662;23.280;2023-01-09T06:45:30;53.00;;;23.65;;
76409;SDS011;65238;42.662;23.280;2023-01-09T06:47:56;54.25;;;25.10;;
76409;SDS011;65238;42.662;23.280;2023-01-09T06:50:21;50.15;;;23.25;;
76409;SDS011;65238;42.662;23.280;2023-01-09T06:52:47;56.28;;;24.80;;
76409;SDS011;65238;42.662;23.280;2023-01-09T06:55:12;45.88;;;23.55;;
76409;SDS011;65238;42.662;23.280;2023-01-09T06:57:37;43.47;;;22.48;;
76409;SDS011;65238;42.662;23.280;2023-01-09T07:00:03;56.13;;;23.88;;
76409;SDS011;65238;42.662;23.280;2023-01-09T07:02:29;53.15;;;24.15;;
76409;SDS011;65238;42.662;23.280;2023-01-09T07:04:54;47.90;;;23.90;;
76409;SDS011;65238;42.662;23.280;2023-01-09T07:07:20;51.88;;;24.13;;
76409;SDS011;65238;42.662;23.280;2023-01-09T07:09:46;48.40;;;24.27;;
76409;SDS011;65238;42.662;23.280;2023-01-09T07:12:12;52.38;;;25.35;;
76409;SDS011;65238;42.662;23.280;2023-01-09T07:14:38;49.90;;;24.05;;
76409;SDS011;65238;42.662;23.280;2023-01-09T07:17:04;45.13;;;24.70;;
76409;SDS011;65238;42.662;23.280;2023-01-09T07:19:29;50.58;;;24.13;;
76409;SDS011;65238;42.662;23.280;2023-01-09T07:21:55;52.00;;;24.38;;
76409;SDS011;65238;42.662;23.280;2023-01-09T07:24:20;49.58;;;24.70;;
76409;SDS011;65238;42.662;23.280;2023-01-09T07:26:46;47.17;;;22.55;;
76409;SDS011;65238;42.662;23.280;2023-01-09T07:29:11;45.42;;;23.05;;
76409;SDS011;65238;42.662;23.280;2023-01-09T07:31:37;41.55;;;22.52;;
76409;SDS011;65238;42.662;23.280;2023-01-09T07:34:02;53.80;;;22.30;;
76409;SDS011;65238;42.662;23.280;2023-01-09T07:36:28;46.25;;;22.25;;
76409;SDS011;65238;42.662;23.280;2023-01-09T07:38:53;40.47;;;21.83;;
76409;SDS011;65238;42.662;23.280;2023-01-09T07:41:22;37.53;;;19.70;;
76409;SDS011;65238;42.662;23.280;2023-01-09T07:43:47;43.78;;;19.38;;
76409;SDS011;65238;42.662;23.280;2023-01-09T07:46:13;39.83;;;19.63;;
76409;SDS011;65238;42.662;23.280;2023-01-09T07:48:38;39.15;;;20.60;;
76409;SDS011;65238;42.662;23.280;2023-01-09T07:51:04;41.25;;;20.17;;
76409;SDS011;65238;42.662;23.280;2023-01-09T07:53:30;40.95;;;20.67;;
76409;SDS011;65238;42.662;23.280;2023-01-09T07:55:55;38.47;;;20.35;;
76409;SDS011;65238;42.662;23.280;2023-01-09T07:58:21;38.65;;;20.13;;
76409;SDS011;65238;42.662;23.280;2023-01-09T08:00:46;42.50;;;21.50;;
76409;SDS011;65238;42.662;23.280;2023-01-09T08:03:12;47.30;;;20.90;;
76409;SDS011;65238;42.662;23.280;2023-01-09T08:05:44;45.92;;;22.25;;
76409;SDS011;65238;42.662;23.280;2023-01-09T08:08:23;51.17;;;21.50;;
76409;SDS011;65238;42.662;23.280;2023-01-09T08:10:55;36.42;;;20.25;;
76409;SDS011;65238;42.662;23.280;2023-01-09T08:13:27;43.60;;;21.65;;
76409;SDS011;65238;42.662;23.280;2023-01-09T08:15:56;37.97;;;20.27;;
76409;SDS011;65238;42.662;23.280;2023-01-09T08:18:28;35.33;;;19.60;;
76409;SDS011;65238;42.662;23.280;2023-01-09T08:20:54;39.40;;;20.27;;
76409;SDS011;65238;42.662;23.280;2023-01-09T08:23:20;37.28;;;19.98;;
76409;SDS011;65238;42.662;23.280;2023-01-09T08:25:45;37.00;;;19.15;;
76409;SDS011;65238;42.662;23.280;2023-01-09T08:28:10;36.33;;;20.27;;
76409;SDS011;65238;42.662;23.280;2023-01-09T08:30:36;34.90;;;19.67;;
76409;SDS011;65238;42.662;23.280;2023-01-09T08:33:02;41.55;;;21.02;;
76409;SDS011;65238;42.662;23.280;2023-01-09T08:35:28;41.15;;;21.55;;
76409;SDS011;65238;42.662;23.280;2023-01-09T08:37:53;45.38;;;21.85;;
76409;SDS011;65238;42.662;23.280;2023-01-09T08:40:19;39.90;;;23.25;;
76409;SDS011;65238;42.662;23.280;2023-01-09T08:42:44;70.97;;;37.33;;
76409;SDS011;65238;42.662;23.280;2023-01-09T08:45:28;88.43;;;49.42;;
76409;SDS011;65238;42.662;23.280;2023-01-09T08:48:13;95.45;;;52.22;;
76409;SDS011;65238;42.662;23.280;2023-01-09T08:50:38;93.30;;;52.90;;
76409;SDS011;65238;42.662;23.280;2023-01-09T08:53:04;96.03;;;53.25;;
76409;SDS011;65238;42.662;23.280;2023-01-09T08:55:29;96.25;;;52.17;;
76409;SDS011;65238;42.662;23.280;2023-01-09T08:57:54;92.38;;;53.35;;
76409;SDS011;65238;42.662;23.280;2023-01-09T09:00:21;85.25;;;50.25;;
76409;SDS011;65238;42.662;23.280;2023-01-09T09:02:50;92.18;;;48.47;;
76409;SDS011;65238;42.662;23.280;2023-01-09T09:05:16;77.50;;;43.45;;
76409;SDS011;65238;42.662;23.280;2023-01-09T09:07:42;67.22;;;39.03;;
76409;SDS011;65238;42.662;23.280;2023-01-09T09:10:20;58.33;;;30.38;;
76409;SDS011;65238;42.662;23.280;2023-01-09T09:12:47;56.15;;;30.65;;
76409;SDS011;65238;42.662;23.280;2023-01-09T09:15:14;54.70;;;29.85;;
76409;SDS011;65238;42.662;23.280;2023-01-09T09:17:48;61.10;;;33.30;;
76409;SDS011;65238;42.662;23.280;2023-01-09T09:20:18;58.55;;;31.38;;
76409;SDS011;65238;42.662;23.280;2023-01-09T09:22:48;60.17;;;32.17;;
76409;SDS011;65238;42.662;23.280;2023-01-09T09:25:16;65.40;;;32.28;;
76409;SDS011;65238;42.662;23.280;2023-01-09T09:27:42;59.33;;;31.77;;
76409;SDS011;65238;42.662;23.280;2023-01-09T09:30:08;66.43;;;33.92;;
76409;SDS011;65238;42.662;23.280;2023-01-09T09:32:34;63.08;;;36.05;;
76409;SDS011;65238;42.662;23.280;2023-01-09T09:35:00;70.07;;;36.33;;
76409;SDS011;65238;42.662;23.280;2023-01-09T09:37:26;68.70;;;36.85;;
76409;SDS011;65238;42.662;23.280;2023-01-09T09:39:51;69.00;;;34.97;;
76409;SDS011;65238;42.662;23.280;2023-01-09T09:42:26;63.40;;;32.95;;
76409;SDS011;65238;42.662;23.280;2023-01-09T09:45:37;45.40;;;21.10;;
76409;SDS011;65238;42.662;23.280;2023-01-09T09:56:03;39.97;;;19.83;;
76409;SDS011;65238;42.662;23.280;2023-01-09T09:58:36;43.70;;;20.98;;
76409;SDS011;65238;42.662;23.280;2023-01-09T10:01:06;35.67;;;19.88;;
76409;SDS011;65238;42.662;23.280;2023-01-09T10:03:40;36.92;;;18.60;;
76409;SDS011;65238;42.662;23.280;2023-01-09T10:08:53;35.30;;;18.05;;
76409;SDS011;65238;42.662;23.280;2023-01-09T10:11:21;43.70;;;21.17;;
76409;SDS011;65238;42.662;23.280;2023-01-09T10:13:50;42.97;;;22.13;;
76409;SDS011;65238;42.662;23.280;2023-01-09T10:27:26;46.13;;;24.52;;
76409;SDS011;65238;42.662;23.280;2023-01-09T10:30:22;51.05;;;25.55;;
76409;SDS011;65238;42.662;23.280;2023-01-09T10:37:52;40.63;;;21.90;;
76409;SDS011;65238;42.662;23.280;2023-01-09T10:40:27;39.10;;;20.52;;
76409;SDS011;65238;42.662;23.280;2023-01-09T10:43:00;37.35;;;19.50;;
76409;SDS011;65238;42.662;23.280;2023-01-09T10:45:39;40.13;;;19.40;;
76409;SDS011;65238;42.662;23.280;2023-01-09T10:50:53;37.30;;;18.13;;
76409;SDS011;65238;42.662;23.280;2023-01-09T10:56:00;32.80;;;17.90;;
76409;SDS011;65238;42.662;23.280;2023-01-09T10:58:29;37.72;;;18.75;;
76409;SDS011;65238;42.662;23.280;2023-01-09T11:00:55;42.00;;;19.63;;
76409;SDS011;65238;42.662;23.280;2023-01-09T11:03:25;39.53;;;19.58;;
76409;SDS011;65238;42.662;23.280;2023-01-09T11:05:52;39.95;;;21.77;;
76409;SDS011;65238;42.662;23.280;2023-01-09T11:08:30;42.17;;;22.13;;
76409;SDS011;65238;42.662;23.280;2023-01-09T11:11:00;43.65;;;21.95;;
76409;SDS011;65238;42.662;23.280;2023-01-09T11:18:47;36.70;;;19.15;;
76409;SDS011;65238;42.662;23.280;2023-01-09T11:21:33;43.00;;;20.35;;
76409;SDS011;65238;42.662;23.280;2023-01-09T11:26:52;35.35;;;18.42;;
76409;SDS011;65238;42.662;23.280;2023-01-09T11:29:36;32.55;;;18.02;;
76409;SDS011;65238;42.662;23.280;2023-01-09T11:32:02;34.63;;;18.00;;
76409;SDS011;65238;42.662;23.280;2023-01-09T11:34:32;37.38;;;18.50;;
76409;SDS011;65238;42.662;23.280;2023-01-09T11:37:02;35.95;;;19.15;;
76409;SDS011;65238;42.662;23.280;2023-01-09T11:39:31;35.40;;;16.23;;
76409;SDS011;65238;42.662;23.280;2023-01-09T11:42:04;32.83;;;17.10;;
76409;SDS011;65238;42.662;23.280;2023-01-09T11:44:31;30.83;;;16.70;;
76409;SDS011;65238;42.662;23.280;2023-01-09T11:46:57;32.70;;;16.45;;
76409;SDS011;65238;42.662;23.280;2023-01-09T11:49:24;37.67;;;16.95;;
76409;SDS011;65238;42.662;23.280;2023-01-09T11:54:37;34.25;;;16.60;;
76409;SDS011;65238;42.662;23.280;2023-01-09T11:57:12;35.95;;;16.20;;
76409;SDS011;65238;42.662;23.280;2023-01-09T11:59:37;32.60;;;16.00;;
76409;SDS011;65238;42.662;23.280;2023-01-09T12:05:19;35.28;;;16.88;;
76409;SDS011;65238;42.662;23.280;2023-01-09T12:16:29;32.35;;;15.63;;
76409;SDS011;65238;42.662;23.280;2023-01-09T12:21:31;34.05;;;15.68;;
76409;SDS011;65238;42.662;23.280;2023-01-09T12:26:32;33.50;;;16.67;;
76409;SDS011;65238;42.662;23.280;2023-01-09T12:42:30;36.88;;;16.85;;
76409;SDS011;65238;42.662;23.280;2023-01-09T12:51:10;36.95;;;17.10;;
76409;SDS011;65238;42.662;23.280;2023-01-09T12:53:43;31.25;;;15.93;;
76409;SDS011;65238;42.662;23.280;2023-01-09T12:56:17;28.75;;;15.35;;
76409;SDS011;65238;42.662;23.280;2023-01-09T12:58:49;35.88;;;15.93;;
76409;SDS011;65238;42.662;23.280;2023-01-09T13:01:21;39.70;;;16.33;;
76409;SDS011;65238;42.662;23.280;2023-01-09T13:04:00;33.05;;;16.00;;
76409;SDS011;65238;42.662;23.280;2023-01-09T13:06:27;33.88;;;16.13;;
76409;SDS011;65238;42.662;23.280;2023-01-09T13:08:57;30.38;;;15.57;;
76409;SDS011;65238;42.662;23.280;2023-01-09T13:11:46;31.63;;;15.63;;
76409;SDS011;65238;42.662;23.280;2023-01-09T13:14:24;32.47;;;14.85;;
76409;SDS011;65238;42.662;23.280;2023-01-09T13:17:20;36.20;;;17.27;;
76409;SDS011;65238;42.662;23.280;2023-01-09T13:19:49;32.05;;;15.80;;
76409;SDS011;65238;42.662;23.280;2023-01-09T13:22:14;33.28;;;16.13;;
76409;SDS011;65238;42.662;23.280;2023-01-09T13:27:16;30.63;;;16.10;;
76409;SDS011;65238;42.662;23.280;2023-01-09T13:29:44;32.88;;;15.88;;
76409;SDS011;65238;42.662;23.280;2023-01-09T13:34:48;28.98;;;14.52;;
76409;SDS011;65238;42.662;23.280;2023-01-09T13:39:55;37.05;;;16.42;;
76409;SDS011;65238;42.662;23.280;2023-01-09T13:42:40;28.67;;;14.75;;
76409;SDS011;65238;42.662;23.280;2023-01-09T13:45:25;32.30;;;16.17;;
76409;SDS011;65238;42.662;23.280;2023-01-09T13:50:32;31.98;;;15.10;;
76409;SDS011;65238;42.662;23.280;2023-01-09T13:53:10;30.40;;;14.55;;
76409;SDS011;65238;42.662;23.280;2023-01-09T14:06:33;32.13;;;15.50;;
76409;SDS011;65238;42.662;23.280;2023-01-09T14:12:04;31.20;;;15.90;;
76409;SDS011;65238;42.662;23.280;2023-01-09T14:14:30;36.63;;;16.25;;
76409;SDS011;65238;42.662;23.280;2023-01-09T14:16:57;31.10;;;16.38;;
76409;SDS011;65238;42.662;23.280;2023-01-09T14:19:34;35.05;;;17.10;;
76409;SDS011;65238;42.662;23.280;2023-01-09T14:22:00;33.42;;;15.30;;
76409;SDS011;65238;42.662;23.280;2023-01-09T14:24:31;31.15;;;16.75;;
76409;SDS011;65238;42.662;23.280;2023-01-09T14:26:57;33.40;;;15.77;;
76409;SDS011;65238;42.662;23.280;2023-01-09T14:34:46;34.08;;;16.92;;
76409;SDS011;65238;42.662;23.280;2023-01-09T14:37:33;33.17;;;15.63;;
76409;SDS011;65238;42.662;23.280;2023-01-09T14:39:59;34.30;;;16.25;;
76409;SDS011;65238;42.662;23.280;2023-01-09T14:42:26;33.08;;;15.35;;
76409;SDS011;65238;42.662;23.280;2023-01-09T14:44:54;30.92;;;15.98;;
76409;SDS011;65238;42.662;23.280;2023-01-09T14:47:33;34.03;;;14.70;;
76409;SDS011;65238;42.662;23.280;2023-01-09T14:54:58;36.58;;;15.98;;
76409;SDS011;65238;42.662;23.280;2023-01-09T14:57:26;36.25;;;17.35;;
76409;SDS011;65238;42.662;23.280;2023-01-09T15:00:00;37.95;;;17.00;;
76409;SDS011;65238;42.662;23.280;2023-01-09T15:02:34;32.85;;;16.02;;
76409;SDS011;65238;42.662;23.280;2023-01-09T15:05:10;37.65;;;17.15;;
76409;SDS011;65238;42.662;23.280;2023-01-09T15:07:47;35.33;;;16.00;;
76409;SDS011;65238;42.662;23.280;2023-01-09T15:10:15;39.17;;;17.25;;
76409;SDS011;65238;42.662;23.280;2023-01-09T15:12:44;36.88;;;16.65;;
76409;SDS011;65238;42.662;23.280;2023-01-09T15:15:11;34.65;;;15.05;;
76409;SDS011;65238;42.662;23.280;2023-01-09T15:17:37;38.70;;;18.25;;
76409;SDS011;65238;42.662;23.280;2023-01-09T15:20:07;34.85;;;16.67;;
76409;SDS011;65238;42.662;23.280;2023-01-09T15:22:49;35.35;;;16.45;;
76409;SDS011;65238;42.662;23.280;2023-01-09T15:27:52;32.38;;;15.77;;
76409;SDS011;65238;42.662;23.280;2023-01-09T15:32:53;34.78;;;15.57;;
76409;SDS011;65238;42.662;23.280;2023-01-09T15:35:23;42.30;;;17.90;;
76409;SDS011;65238;42.662;23.280;2023-01-09T15:37:50;34.35;;;15.63;;
76409;SDS011;65238;42.662;23.280;2023-01-09T15:40:20;32.13;;;15.35;;
76409;SDS011;65238;42.662;23.280;2023-01-09T15:42:50;35.22;;;16.02;;
76409;SDS011;65238;42.662;23.280;2023-01-09T15:45:33;31.60;;;16.95;;
76409;SDS011;65238;42.662;23.280;2023-01-09T15:51:12;36.75;;;15.93;;
76409;SDS011;65238;42.662;23.280;2023-01-09T15:53:38;37.47;;;17.95;;
76409;SDS011;65238;42.662;23.280;2023-01-09T15:58:37;36.15;;;17.05;;
76409;SDS011;65238;42.662;23.280;2023-01-09T16:01:30;34.10;;;16.60;;
76409;SDS011;65238;42.662;23.280;2023-01-09T16:04:17;42.40;;;19.00;;
76409;SDS011;65238;42.662;23.280;2023-01-09T16:06:48;39.35;;;19.48;;
76409;SDS011;65238;42.662;23.280;2023-01-09T16:09:22;39.92;;;18.00;;
76409;SDS011;65238;42.662;23.280;2023-01-09T16:11:52;39.83;;;19.63;;
76409;SDS011;65238;42.662;23.280;2023-01-09T16:19:50;38.75;;;18.52;;
76409;SDS011;65238;42.662;23.280;2023-01-09T16:22:21;36.67;;;17.85;;
76409;SDS011;65238;42.662;23.280;2023-01-09T16:24:48;36.00;;;16.83;;
76409;SDS011;65238;42.662;23.280;2023-01-09T16:32:24;44.22;;;18.80;;
76409;SDS011;65238;42.662;23.280;2023-01-09T16:34:51;40.30;;;18.00;;
76409;SDS011;65238;42.662;23.280;2023-01-09T16:37:24;37.03;;;17.63;;
76409;SDS011;65238;42.662;23.280;2023-01-09T16:42:33;44.63;;;19.30;;
76409;SDS011;65238;42.662;23.280;2023-01-09T16:45:18;47.33;;;20.23;;
76409;SDS011;65238;42.662;23.280;2023-01-09T16:47:44;40.08;;;18.95;;
76409;SDS011;65238;42.662;23.280;2023-01-09T16:50:10;41.65;;;19.55;;
76409;SDS011;65238;42.662;23.280;2023-01-09T16:52:36;51.53;;;22.77;;
76409;SDS011;65238;42.662;23.280;2023-01-09T16:55:02;48.65;;;20.98;;
76409;SDS011;65238;42.662;23.280;2023-01-09T16:57:28;40.42;;;19.00;;
76409;SDS011;65238;42.662;23.280;2023-01-09T16:59:54;39.40;;;17.90;;
76409;SDS011;65238;42.662;23.280;2023-01-09T17:02:24;41.58;;;18.88;;